Airfield :
LOGIN :

Register | Disclaimer

   EN    FR    IT 

 










Legend :    VFR   Marginal VFR   IFR   Intensive IFR   Very Intensive IFR
Visi :
Ceiling :
>= 8 km
>= 3000ft
5 to 8 km
1000 to 3000 ft
1500m to 5 km
500 to 1000 ft
800 to 1500m
200 to 500 ft
< 800m
< 200 ft
Symbols :   Thunderstorms  Fog  Heavy snow  Heavy precipitations  Wind > 20 kt
SIGMETs :     Misc.  Thunderstorms  Icing  Turbulence  Mountain Waves  Volcanic Ashes






- Airport Elevation : 63 ft
- IATA code : BZM


EHWO - Woensdrecht Airbase

CURRENT METAR :
  • 190635Z AUTO 29003KT 9999 FEW015CB SCT028 01/01 Q1035 BLU

EXPIRED METARs :
  • 190625Z AUTO 28004KT 9999 SCT020 BKN024 BKN027 01/M00 Q1035 WHT
  • 190617Z AUTO 28003KT 9999 FEW015CB SCT023 01/M00 Q1035 WHT
  • 190555Z AUTO VRB02KT 9999 FEW049 02/01 Q1035 BLU
  • 190525Z AUTO VRB02KT 9999 NCD 03/02 Q1034 BLU
  • 190455Z AUTO 31005KT 250V350 9999 FEW015CB 03/02 Q1034 REDZ BLU
  • 190444Z AUTO 30006KT 240V330 9999 -DZ FEW015CB SCT020 BKN024 BKN028 03/02 Q1034 WHT
  • 190425Z AUTO 25003KT 9999 NCD 01/01 Q1034 BLU
  • 190402Z AUTO VRB01KT 9999 FEW024 SCT027 BKN038 02/01 Q1034 BLU

Expired Forecast.



MET'MAP, your aeronautical weather chart ! - Copyright ORBIFLY December 2007 - Disclaimer

ORBIFLY MET'MAP TEAM :

Programming & Development : Alexandra Zaïnal
Concept & original design : Baudouin d'Aumeries
Assistance for programming : Marc-Olivier Méhu
Technical & hardware support : Manuel Goepfert

Contact : metmap@orbifly.com




SOURCES & CREDITS :

   NOAA